createdAt,value
2019-03-05T00:01:15.239Z,4.50
2019-03-05T00:03:42.681Z,5.67
2019-03-05T00:06:10.083Z,5.23
2019-03-05T00:08:37.515Z,4.37
2019-03-05T00:11:04.928Z,4.00
2019-03-05T00:13:32.431Z,5.00
2019-03-05T00:15:59.980Z,7.93
2019-03-05T00:18:27.426Z,3.90
2019-03-05T00:20:54.828Z,3.73
2019-03-05T00:23:52.350Z,4.17
2019-03-05T00:26:31.713Z,5.93
2019-03-05T00:29:17.043Z,11.43
2019-03-05T00:31:44.460Z,6.40
2019-03-05T00:34:30.141Z,5.10
2019-03-05T00:36:57.557Z,6.03
2019-03-05T00:39:55.366Z,5.50
2019-03-05T00:42:49.870Z,5.67
2019-03-05T00:45:41.308Z,4.13
2019-03-05T00:48:29.693Z,4.40
2019-03-05T00:51:00.040Z,5.47
2019-03-05T00:53:30.038Z,9.43
2019-03-05T00:56:09.257Z,8.50
2019-03-05T00:58:48.369Z,7.57
2019-03-05T01:01:18.673Z,7.57
2019-03-05T01:03:55.113Z,10.03
2019-03-05T01:06:25.405Z,7.80
2019-03-05T01:08:52.839Z,7.23
2019-03-05T01:11:20.248Z,3.63
2019-03-05T01:13:47.649Z,5.37
2019-03-05T01:16:15.088Z,9.43
2019-03-05T01:18:42.531Z,3.70
2019-03-05T01:21:09.936Z,5.13
2019-03-05T01:23:37.348Z,5.73
2019-03-05T01:26:04.791Z,2.90
2019-03-05T01:28:32.194Z,5.47
2019-03-05T01:31:17.518Z,7.80
2019-03-05T01:33:47.410Z,7.47
2019-03-05T01:36:23.834Z,3.70
2019-03-05T01:39:03.192Z,3.63
2019-03-05T01:41:30.627Z,7.83
2019-03-05T01:43:58.024Z,3.00
2019-03-05T01:46:25.520Z,6.47
2019-03-05T01:48:52.933Z,8.23
2019-03-05T01:51:20.353Z,7.20
2019-03-05T01:53:47.790Z,4.73
2019-03-05T01:56:15.172Z,6.13
2019-03-05T01:58:42.617Z,10.20
2019-03-05T02:01:10.023Z,10.83
2019-03-05T02:03:37.441Z,9.40
2019-03-05T02:06:04.839Z,7.27
2019-03-05T02:08:32.261Z,8.93
2019-03-05T02:10:59.680Z,7.40
2019-03-05T02:13:27.116Z,8.73
2019-03-05T02:15:54.583Z,6.47
2019-03-05T02:18:21.945Z,7.03
2019-03-05T02:20:49.351Z,3.60
2019-03-05T02:23:44.258Z,7.53
2019-03-05T02:26:33.163Z,9.53
2019-03-05T02:29:00.584Z,6.53
2019-03-05T02:31:49.136Z,5.23
2019-03-05T02:34:19.287Z,5.10
2019-03-05T02:36:49.404Z,6.97
2019-03-05T02:39:38.590Z,9.20
2019-03-05T02:42:24.253Z,4.77
2019-03-05T02:45:18.659Z,10.20
2019-03-05T02:48:07.198Z,4.80
2019-03-05T02:50:52.448Z,6.03
2019-03-05T02:53:25.516Z,7.40
2019-03-05T02:56:01.486Z,7.90
2019-03-05T02:58:28.386Z,7.47
2019-03-05T03:01:13.973Z,7.57
2019-03-05T03:03:41.377Z,4.37
2019-03-05T03:06:11.336Z,6.13
2019-03-05T03:08:38.783Z,7.33
2019-03-05T03:11:06.149Z,4.17
2019-03-05T03:13:33.583Z,5.73
2019-03-05T03:16:00.994Z,6.73
2019-03-05T03:18:28.389Z,6.73
2019-03-05T03:20:55.811Z,4.27
2019-03-05T03:23:23.229Z,4.93
2019-03-05T03:25:50.640Z,5.00
2019-03-05T03:28:18.063Z,7.47
2019-03-05T03:30:45.465Z,6.87
2019-03-05T03:33:12.873Z,7.30
2019-03-05T03:35:40.287Z,4.53
2019-03-05T03:38:07.712Z,5.07
2019-03-05T03:40:35.127Z,7.30
2019-03-05T03:43:02.586Z,6.43
2019-03-05T03:45:29.952Z,6.80
2019-03-05T03:47:57.386Z,7.70
2019-03-05T03:50:24.821Z,4.57
2019-03-05T03:52:52.226Z,4.40
2019-03-05T03:55:19.632Z,5.30
2019-03-05T03:57:47.045Z,5.83
2019-03-05T04:00:14.457Z,8.13
2019-03-05T04:02:41.879Z,3.37
2019-03-05T04:05:09.290Z,9.10
2019-03-05T04:07:36.716Z,10.43
2019-03-05T04:10:04.146Z,5.80
2019-03-05T04:12:31.553Z,3.83
2019-03-05T04:14:58.983Z,3.60
2019-03-05T04:17:26.427Z,5.60
2019-03-05T04:19:53.820Z,7.23
2019-03-05T04:22:21.253Z,5.40
2019-03-05T04:24:48.694Z,4.17
2019-03-05T04:27:16.106Z,6.53
2019-03-05T04:29:43.487Z,4.70
2019-03-05T04:32:10.913Z,8.57
2019-03-05T04:34:38.308Z,4.90
2019-03-05T04:37:05.736Z,4.80
2019-03-05T04:39:33.136Z,9.33
2019-03-05T04:42:00.561Z,5.20
2019-03-05T04:44:27.971Z,4.20
2019-03-05T04:46:55.409Z,5.87
2019-03-05T04:49:26.639Z,5.03
2019-03-05T04:51:53.172Z,3.13
2019-03-05T04:54:20.584Z,3.33
2019-03-05T04:56:47.993Z,4.43
2019-03-05T04:59:15.408Z,2.67
2019-03-05T05:01:42.816Z,3.37
2019-03-05T05:04:10.258Z,4.33
2019-03-05T05:06:37.654Z,4.10
2019-03-05T05:09:05.085Z,3.03
2019-03-05T05:11:32.513Z,3.33
2019-03-05T05:13:59.931Z,2.70
2019-03-05T05:16:27.369Z,5.20
2019-03-05T05:18:54.777Z,2.13
2019-03-05T05:21:22.175Z,3.37
2019-03-05T05:23:49.612Z,5.90
2019-03-05T05:26:17.873Z,5.13
2019-03-05T05:28:44.414Z,5.90
2019-03-05T05:31:11.840Z,2.97
2019-03-05T05:33:39.235Z,3.83
2019-03-05T05:36:06.660Z,3.93
2019-03-05T05:38:34.090Z,4.27
2019-03-05T05:41:01.499Z,2.33
2019-03-05T05:43:28.923Z,2.30
2019-03-05T05:45:56.342Z,2.93
2019-03-05T05:48:23.774Z,2.07
2019-03-05T05:50:51.193Z,2.97
2019-03-05T05:53:18.605Z,3.10
2019-03-05T05:55:46.029Z,2.53
2019-03-05T05:58:13.428Z,1.80
2019-03-05T06:00:40.839Z,3.20
2019-03-05T06:03:08.244Z,2.77
2019-03-05T06:05:35.678Z,3.27
2019-03-05T06:08:03.080Z,1.50
2019-03-05T06:10:30.512Z,2.10
2019-03-05T06:12:57.923Z,3.60
2019-03-05T06:15:25.358Z,3.50
2019-03-05T06:17:52.758Z,2.67
2019-03-05T06:20:20.150Z,2.70
2019-03-05T06:22:47.601Z,2.33
2019-03-05T06:25:15.012Z,4.00
2019-03-05T06:27:42.440Z,6.37
2019-03-05T06:30:18.823Z,3.47
2019-03-05T06:32:46.241Z,4.03
2019-03-05T06:35:13.645Z,2.37
2019-03-05T06:37:41.072Z,6.70
2019-03-05T06:40:17.179Z,4.50
2019-03-05T06:42:44.668Z,5.37
2019-03-05T06:45:14.682Z,22.43
2019-03-05T06:47:42.102Z,6.23
2019-03-05T06:50:09.516Z,6.87
2019-03-05T06:52:36.942Z,6.33
2019-03-05T06:55:04.366Z,5.10
2019-03-05T06:57:31.788Z,9.17
2019-03-05T06:59:59.211Z,11.20
2019-03-05T07:02:26.638Z,6.17
2019-03-05T07:04:56.863Z,8.53
2019-03-05T07:07:24.293Z,6.60
2019-03-05T07:09:57.573Z,9.27
2019-03-05T07:12:24.988Z,8.70
2019-03-05T07:15:26.089Z,8.00
2019-03-05T07:17:56.419Z,10.53
2019-03-05T07:20:38.534Z,4.97
2019-03-05T07:23:08.086Z,8.13
2019-03-05T07:25:33.338Z,7.10
2019-03-05T07:28:00.738Z,9.23
2019-03-05T07:30:28.163Z,7.30
2019-03-05T07:32:55.590Z,6.17
2019-03-05T07:35:23.003Z,6.30
2019-03-05T07:37:50.431Z,7.43
2019-03-05T07:40:17.849Z,7.63
2019-03-05T07:42:45.278Z,5.07
2019-03-05T07:45:12.699Z,8.07
2019-03-05T07:47:40.101Z,5.53
2019-03-05T07:50:10.334Z,5.73
2019-03-05T07:52:37.734Z,6.33
2019-03-05T07:55:13.302Z,7.47
2019-03-05T07:57:32.572Z,6.20
2019-03-05T08:00:00.008Z,10.40
2019-03-05T08:02:27.422Z,6.83
2019-03-05T08:04:54.852Z,8.33
2019-03-05T08:07:22.262Z,9.23
2019-03-05T08:09:49.691Z,11.23
2019-03-05T08:12:25.792Z,11.10
2019-03-05T08:14:53.195Z,7.73
2019-03-05T08:17:20.631Z,6.37
2019-03-05T08:19:48.050Z,6.27
2019-03-05T08:22:15.480Z,5.90
2019-03-05T08:24:42.896Z,7.10
2019-03-05T08:27:10.328Z,5.33
2019-03-05T08:29:37.774Z,11.73
2019-03-05T08:32:05.186Z,5.00
2019-03-05T08:34:32.582Z,6.13
2019-03-05T08:37:00.010Z,5.83
2019-03-05T08:39:27.422Z,7.33
2019-03-05T08:41:54.814Z,7.47
2019-03-05T08:44:22.247Z,6.63
2019-03-05T08:46:49.649Z,6.73
2019-03-05T08:49:17.988Z,5.80
2019-03-05T08:51:44.479Z,9.13
2019-03-05T08:54:11.935Z,6.53
2019-03-05T08:56:39.339Z,6.77
2019-03-05T08:59:06.752Z,7.17
2019-03-05T09:01:34.196Z,9.17
2019-03-05T09:04:01.637Z,9.77
2019-03-05T09:06:29.046Z,11.13
2019-03-05T09:08:56.472Z,8.43
2019-03-05T09:11:23.905Z,4.83
2019-03-05T09:13:51.326Z,7.97
2019-03-05T09:16:18.756Z,5.93
2019-03-05T09:18:46.158Z,6.07
2019-03-05T09:21:13.581Z,6.97
2019-03-05T09:23:40.983Z,7.77
2019-03-05T09:26:08.403Z,6.37
2019-03-05T09:28:35.801Z,8.83
2019-03-05T09:31:03.234Z,8.53
2019-03-05T09:33:30.639Z,5.83
2019-03-05T09:35:58.036Z,10.30
2019-03-05T09:38:25.471Z,7.43
2019-03-05T09:40:52.880Z,8.60
2019-03-05T09:43:20.317Z,4.47
2019-03-05T09:45:47.725Z,6.63
2019-03-05T09:48:15.157Z,3.97
2019-03-05T09:50:42.565Z,3.47
2019-03-05T09:53:09.977Z,7.30
2019-03-05T09:55:37.423Z,9.63
2019-03-05T09:58:08.349Z,4.20
2019-03-05T10:00:32.257Z,7.30
2019-03-05T10:02:59.658Z,3.97
2019-03-05T10:05:27.080Z,2.37
2019-03-05T10:07:54.510Z,4.30
2019-03-05T10:10:27.639Z,2.30
2019-03-05T10:12:58.943Z,1.23
2019-03-05T10:15:22.744Z,4.43
2019-03-05T10:17:50.265Z,4.77
2019-03-05T10:20:17.709Z,4.27
2019-03-05T10:22:45.118Z,4.17
2019-03-05T10:25:13.031Z,4.00
2019-03-05T10:27:39.957Z,1.70
2019-03-05T10:30:21.358Z,1.73
2019-03-05T10:32:40.407Z,2.73
2019-03-05T10:35:07.866Z,3.83
2019-03-05T10:37:35.287Z,2.70
2019-03-05T10:40:02.710Z,2.83
2019-03-05T10:42:31.891Z,1.43
2019-03-05T10:44:57.533Z,3.17
2019-03-05T10:47:24.974Z,4.23
2019-03-05T10:49:52.407Z,2.80
2019-03-05T10:52:19.818Z,5.57
2019-03-05T10:54:47.237Z,1.87
2019-03-05T10:57:14.655Z,4.37
2019-03-05T10:59:42.084Z,2.43
2019-03-05T11:02:09.522Z,1.30
2019-03-05T11:04:45.480Z,3.07
2019-03-05T11:07:07.467Z,1.83
2019-03-05T11:09:34.917Z,4.63
2019-03-05T11:12:02.307Z,3.67
2019-03-05T11:14:29.742Z,4.00
2019-03-05T11:16:57.155Z,7.63
2019-03-05T11:19:24.594Z,4.87
2019-03-05T11:21:52.080Z,4.80
2019-03-05T11:24:19.507Z,3.50
2019-03-05T11:26:46.950Z,4.67
2019-03-05T11:29:14.345Z,5.50
2019-03-05T11:31:41.755Z,3.47
2019-03-05T11:34:09.188Z,2.80
2019-03-05T11:36:36.586Z,3.60
2019-03-05T11:39:04.026Z,3.63
2019-03-05T11:41:31.439Z,3.53
2019-03-05T11:43:58.968Z,5.80
2019-03-05T11:46:26.462Z,4.40
2019-03-05T11:48:56.421Z,6.03
2019-03-05T11:51:24.257Z,11.97
2019-03-05T11:53:53.622Z,3.93
2019-03-05T11:56:23.241Z,3.93
2019-03-05T11:58:50.785Z,4.70
2019-03-05T12:01:25.623Z,11.23
2019-03-05T12:03:47.118Z,4.77
2019-03-05T12:06:14.792Z,2.53
2019-03-05T12:08:42.249Z,4.67
2019-03-05T12:11:10.752Z,2.40
2019-03-05T12:13:38.420Z,6.07
2019-03-05T12:16:06.886Z,4.43
2019-03-05T12:18:34.423Z,5.87
2019-03-05T12:21:01.925Z,6.17
2019-03-05T12:23:29.687Z,8.07
2019-03-05T12:25:58.136Z,6.00
2019-03-05T12:28:25.644Z,8.80
2019-03-05T12:30:53.182Z,2.93
2019-03-05T12:33:23.017Z,2.83
2019-03-05T12:35:50.560Z,9.10
2019-03-05T12:38:17.960Z,5.70
2019-03-05T12:40:46.355Z,4.33
2019-03-05T12:43:15.155Z,2.40
2019-03-05T12:45:45.813Z,6.13
2019-03-05T12:48:13.223Z,5.60
2019-03-05T12:50:40.686Z,4.33
2019-03-05T12:53:08.117Z,6.70
2019-03-05T12:55:36.848Z,5.93
2019-03-05T12:58:04.749Z,2.93
2019-03-05T13:00:32.158Z,2.33
2019-03-05T13:02:59.725Z,4.57
2019-03-05T13:05:27.143Z,3.03
2019-03-05T13:07:56.641Z,2.30
2019-03-05T13:10:34.919Z,3.70
2019-03-05T13:12:57.692Z,4.73
2019-03-05T13:15:34.380Z,4.80
2019-03-05T13:18:02.250Z,2.97
2019-03-05T13:20:37.382Z,6.07
2019-03-05T13:23:09.590Z,2.50
2019-03-05T13:25:34.766Z,3.20
2019-03-05T13:28:04.048Z,4.57
2019-03-05T13:30:29.896Z,3.67
2019-03-05T13:32:59.252Z,6.43
2019-03-05T13:35:30.285Z,2.73
2019-03-05T13:37:58.481Z,4.73
2019-03-05T13:40:24.709Z,7.63
2019-03-05T13:42:56.055Z,4.03
2019-03-05T13:45:26.185Z,4.60
2019-03-05T13:48:05.812Z,5.93
2019-03-05T13:50:39.169Z,3.67
2019-03-05T13:53:37.734Z,3.13
2019-03-05T13:56:12.129Z,4.13
2019-03-05T13:58:51.053Z,9.23
2019-03-05T14:01:18.583Z,4.87
2019-03-05T14:03:48.690Z,6.17
2019-03-05T14:06:34.518Z,5.60
2019-03-05T14:09:13.825Z,5.70
2019-03-05T14:11:43.478Z,3.40
2019-03-05T14:14:12.074Z,4.10
2019-03-05T14:16:40.900Z,4.60
2019-03-05T14:19:07.039Z,5.57
2019-03-05T14:21:34.484Z,4.30
2019-03-05T14:24:01.990Z,6.47
2019-03-05T14:26:29.509Z,5.93
2019-03-05T14:28:57.030Z,4.10
2019-03-05T14:31:24.460Z,4.03
2019-03-05T14:33:51.935Z,8.90
2019-03-05T14:36:22.067Z,6.30
2019-03-05T14:38:49.553Z,3.43
2019-03-05T14:41:18.239Z,5.13
2019-03-05T14:43:46.927Z,8.13
2019-03-05T14:46:17.033Z,3.93
2019-03-05T14:48:44.538Z,9.40
2019-03-05T14:51:11.995Z,5.37
2019-03-05T14:53:39.446Z,5.30
2019-03-05T14:56:09.217Z,5.30
2019-03-05T14:58:36.720Z,3.03
2019-03-05T15:01:05.540Z,3.30
2019-03-05T15:03:33.304Z,2.60
2019-03-05T15:06:04.024Z,6.17
2019-03-05T15:08:31.549Z,6.70
2019-03-05T15:10:58.938Z,3.87
2019-03-05T15:13:26.437Z,2.83
2019-03-05T15:15:53.860Z,6.53
2019-03-05T15:18:21.338Z,4.80
2019-03-05T15:20:48.834Z,4.37
2019-03-05T15:23:16.290Z,2.90
2019-03-05T15:25:45.829Z,3.23
2019-03-05T15:28:14.118Z,5.20
2019-03-05T15:30:42.960Z,2.40
2019-03-05T15:33:10.496Z,3.20
2019-03-05T15:35:37.906Z,3.50
2019-03-05T15:38:07.575Z,7.17
2019-03-05T15:40:36.118Z,5.73
2019-03-05T15:43:07.553Z,6.50
2019-03-05T15:45:35.061Z,3.90
2019-03-05T15:48:02.513Z,6.23
2019-03-05T15:50:32.611Z,3.70
2019-03-05T15:53:02.504Z,5.07
2019-03-05T15:55:31.984Z,5.33
2019-03-05T15:57:59.434Z,4.80
2019-03-05T16:00:32.120Z,5.13
2019-03-05T16:02:59.616Z,4.00
2019-03-05T16:05:27.133Z,3.67
2019-03-05T16:07:54.575Z,10.70
2019-03-05T16:10:22.117Z,5.23
2019-03-05T16:12:51.164Z,6.27
2019-03-05T16:15:18.943Z,7.50
2019-03-05T16:17:46.915Z,5.57
2019-03-05T16:20:17.168Z,7.63
2019-03-05T16:22:44.803Z,5.80
2019-03-05T16:25:22.227Z,5.00
2019-03-05T16:27:48.630Z,3.07
2019-03-05T16:30:42.243Z,4.70
2019-03-05T16:33:12.427Z,8.77
2019-03-05T16:35:51.933Z,5.87
2019-03-05T16:38:51.122Z,3.90
2019-03-05T16:41:34.897Z,5.50
2019-03-05T16:44:08.136Z,8.53
2019-03-05T16:46:35.613Z,6.57
2019-03-05T16:49:18.154Z,3.37
2019-03-05T16:52:03.908Z,7.00
2019-03-05T16:54:49.433Z,5.63
2019-03-05T16:57:28.786Z,4.27
2019-03-05T17:00:07.063Z,5.20
2019-03-05T17:02:46.944Z,3.57
2019-03-05T17:05:24.096Z,13.20
2019-03-05T17:07:54.328Z,11.37
2019-03-05T17:10:29.949Z,6.87
2019-03-05T17:12:55.554Z,5.10
2019-03-05T17:15:25.292Z,7.50
2019-03-05T17:17:52.891Z,6.40
2019-03-05T17:20:20.371Z,6.23
2019-03-05T17:22:47.824Z,11.37
2019-03-05T17:25:15.865Z,6.80
2019-03-05T17:27:43.310Z,13.17
2019-03-05T17:30:15.123Z,11.40
2019-03-05T17:32:42.634Z,8.17
2019-03-05T17:35:10.068Z,11.50
2019-03-05T17:37:37.898Z,7.93
2019-03-05T17:40:05.880Z,7.00
2019-03-05T17:42:33.649Z,8.17
2019-03-05T17:45:01.460Z,8.70
2019-03-05T17:47:28.985Z,7.70
2019-03-05T17:50:03.529Z,9.37
2019-03-05T17:52:31.157Z,8.40
2019-03-05T17:54:58.676Z,6.13
2019-03-05T17:57:26.138Z,8.80
2019-03-05T17:59:53.967Z,8.90
2019-03-05T18:02:21.553Z,9.63
2019-03-05T18:04:50.558Z,6.87
2019-03-05T18:07:17.985Z,5.80
2019-03-05T18:09:46.276Z,4.23
2019-03-05T18:12:13.707Z,6.57
2019-03-05T18:14:41.156Z,7.53
2019-03-05T18:17:08.593Z,7.23
2019-03-05T18:19:38.183Z,10.40
2019-03-05T18:22:05.643Z,6.17
2019-03-05T18:24:33.093Z,7.00
2019-03-05T18:27:00.588Z,14.10
2019-03-05T18:29:30.489Z,11.07
2019-03-05T18:31:57.924Z,8.00
2019-03-05T18:34:25.370Z,11.73
2019-03-05T18:36:52.875Z,16.50
2019-03-05T18:39:20.377Z,7.97
2019-03-05T18:41:48.708Z,9.00
2019-03-05T18:44:16.137Z,7.60
2019-03-05T18:46:44.663Z,14.53
2019-03-05T18:49:12.124Z,6.47
2019-03-05T18:51:42.419Z,8.20
2019-03-05T18:54:09.907Z,5.67
2019-03-05T18:56:37.663Z,4.97
2019-03-05T18:59:05.160Z,6.17
2019-03-05T19:01:33.905Z,8.43
2019-03-05T19:04:01.332Z,9.20
2019-03-05T19:06:28.749Z,7.57
2019-03-05T19:08:56.210Z,7.57
2019-03-05T19:11:23.774Z,9.37
2019-03-05T19:13:52.390Z,9.40
2019-03-05T19:16:20.178Z,8.77
2019-03-05T19:18:47.646Z,8.47
2019-03-05T19:21:15.128Z,9.90
2019-03-05T19:23:42.615Z,10.17
2019-03-05T19:26:10.149Z,9.30
2019-03-05T19:28:37.587Z,7.00
2019-03-05T19:31:05.006Z,7.73
2019-03-05T19:33:32.479Z,6.33
2019-03-05T19:36:00.256Z,8.53
2019-03-05T19:38:30.881Z,8.93
2019-03-05T19:40:58.329Z,4.50
2019-03-05T19:43:28.776Z,10.17
2019-03-05T19:45:56.791Z,8.17
2019-03-05T19:48:24.251Z,7.30
2019-03-05T19:50:51.826Z,8.57
2019-03-05T19:53:19.279Z,5.90
2019-03-05T19:55:46.724Z,7.93
2019-03-05T19:58:14.210Z,5.90
2019-03-05T20:00:45.205Z,8.97
2019-03-05T20:03:12.825Z,7.23
2019-03-05T20:05:42.437Z,6.50
2019-03-05T20:08:17.314Z,9.23
2019-03-05T20:10:44.754Z,8.37
2019-03-05T20:13:12.198Z,7.83
2019-03-05T20:15:39.963Z,7.80
2019-03-05T20:18:11.331Z,12.57
2019-03-05T20:20:38.774Z,10.77
2019-03-05T20:23:06.351Z,8.33
2019-03-05T20:25:33.768Z,13.00
2019-03-05T20:28:01.214Z,7.30
2019-03-05T20:30:31.859Z,8.47
2019-03-05T20:33:00.736Z,8.47
2019-03-05T20:35:28.185Z,8.77
2019-03-05T20:37:57.308Z,8.57
2019-03-05T20:40:30.858Z,6.30
2019-03-05T20:42:58.364Z,6.13
2019-03-05T20:45:34.461Z,9.27
2019-03-05T20:48:01.937Z,7.37
2019-03-05T20:50:29.390Z,6.80
2019-03-05T20:52:56.827Z,8.50
2019-03-05T20:55:24.826Z,9.80
2019-03-05T20:57:52.260Z,7.40
2019-03-05T21:00:25.407Z,6.17
2019-03-05T21:02:54.023Z,7.83
2019-03-05T21:05:23.980Z,8.60
2019-03-05T21:07:51.428Z,5.37
2019-03-05T21:10:19.019Z,8.27
2019-03-05T21:12:50.316Z,7.60
2019-03-05T21:15:17.761Z,5.47
2019-03-05T21:17:52.480Z,4.67
2019-03-05T21:20:20.963Z,8.10
2019-03-05T21:22:48.414Z,8.20
2019-03-05T21:25:15.903Z,8.80
2019-03-05T21:27:44.386Z,7.40
2019-03-05T21:30:12.106Z,8.47
2019-03-05T21:32:39.546Z,9.03
2019-03-05T21:35:08.149Z,8.70
2019-03-05T21:37:37.280Z,7.00
2019-03-05T21:40:04.740Z,8.43
2019-03-05T21:42:32.203Z,10.40
2019-03-05T21:45:00.892Z,12.40
2019-03-05T21:47:30.931Z,11.53
2019-03-05T21:49:58.896Z,10.90
2019-03-05T21:52:26.341Z,11.93
2019-03-05T21:54:53.940Z,9.97
2019-03-05T21:57:21.366Z,9.07
2019-03-05T21:59:49.371Z,14.27
2019-03-05T22:02:22.970Z,18.90
2019-03-05T22:04:49.048Z,12.57
2019-03-05T22:07:16.566Z,14.23
2019-03-05T22:09:43.989Z,11.60
2019-03-05T22:12:12.371Z,12.83
2019-03-05T22:14:41.814Z,15.47
2019-03-05T22:17:09.284Z,14.10
2019-03-05T22:19:36.746Z,17.70
2019-03-05T22:22:04.197Z,15.33
2019-03-05T22:24:32.682Z,15.93
2019-03-05T22:27:00.119Z,13.33
2019-03-05T22:29:27.526Z,16.10
2019-03-05T22:31:55.222Z,15.73
2019-03-05T22:34:22.709Z,15.53
2019-03-05T22:36:50.192Z,17.00
2019-03-05T22:39:20.000Z,18.23
2019-03-05T22:41:47.495Z,15.67
2019-03-05T22:44:15.979Z,18.50
2019-03-05T22:46:44.430Z,19.47
2019-03-05T22:49:12.441Z,18.17
2019-03-05T22:51:39.881Z,15.57
2019-03-05T22:54:11.447Z,17.07
2019-03-05T22:56:39.241Z,15.47
2019-03-05T22:59:07.538Z,14.63
2019-03-05T23:01:37.470Z,15.17
2019-03-05T23:04:04.946Z,16.37
2019-03-05T23:06:32.967Z,16.93
2019-03-05T23:09:02.725Z,12.77
2019-03-05T23:11:31.592Z,13.57
2019-03-05T23:14:00.279Z,15.90
2019-03-05T23:16:27.702Z,15.47
2019-03-05T23:18:55.167Z,17.93
2019-03-05T23:21:22.618Z,14.13
2019-03-05T23:23:53.023Z,13.63
2019-03-05T23:26:20.445Z,12.20
2019-03-05T23:28:48.767Z,9.23
2019-03-05T23:31:17.254Z,18.10
2019-03-05T23:33:44.687Z,16.60
2019-03-05T23:36:12.128Z,14.60
2019-03-05T23:38:40.990Z,13.87
2019-03-05T23:41:08.461Z,14.47
2019-03-05T23:43:36.003Z,12.03
2019-03-05T23:46:03.422Z,16.27
2019-03-05T23:48:30.844Z,14.47
2019-03-05T23:50:58.304Z,13.00
2019-03-05T23:53:26.046Z,12.63
2019-03-05T23:55:54.712Z,16.30
2019-03-05T23:58:23.149Z,15.07
